createdAt,value
2018-05-24T00:00:20.745Z,23.83
2018-05-24T00:02:48.307Z,18.80
2018-05-24T00:08:06.671Z,17.47
2018-05-24T00:10:34.221Z,18.80
2018-05-24T00:13:01.792Z,17.43
2018-05-24T00:15:29.369Z,22.70
2018-05-24T00:17:56.911Z,17.00
2018-05-24T00:20:24.468Z,15.43
2018-05-24T00:22:52.014Z,20.63
2018-05-24T00:25:19.824Z,18.80
2018-05-24T00:30:37.602Z,19.10
2018-05-24T00:33:26.844Z,20.53
2018-05-24T00:35:54.431Z,23.20
2018-05-24T00:38:21.933Z,18.70
2018-05-24T00:40:50.128Z,19.83
2018-05-24T00:46:08.102Z,18.57
2018-05-24T00:48:35.708Z,15.67
2018-05-24T01:08:11.562Z,23.73
2018-05-24T01:13:31.663Z,21.13
2018-05-24T01:15:59.258Z,18.97
2018-05-24T01:18:26.833Z,18.70
2018-05-24T01:20:54.421Z,24.00
2018-05-24T01:23:21.945Z,20.83
2018-05-24T01:31:30.871Z,17.43
2018-05-24T01:37:00.702Z,16.37
2018-05-24T01:39:28.276Z,23.90
2018-05-24T01:41:55.875Z,18.87
2018-05-24T01:44:23.536Z,18.40
2018-05-24T01:46:51.074Z,23.70
2018-05-24T01:52:35.469Z,23.17
2018-05-24T01:55:03.041Z,24.93
2018-05-24T01:57:30.831Z,21.80
2018-05-24T01:59:58.445Z,22.27
2018-05-24T02:02:26.042Z,22.20
2018-05-24T02:04:53.589Z,21.00
2018-05-24T02:07:21.135Z,20.37
2018-05-24T02:12:39.812Z,20.20
2018-05-24T02:15:07.379Z,21.80
2018-05-24T02:17:34.947Z,21.17
2018-05-24T02:20:03.048Z,22.83
2018-05-24T02:22:30.605Z,21.53
2018-05-24T02:24:58.189Z,21.93
2018-05-24T02:27:25.764Z,20.33
2018-05-24T02:29:53.348Z,20.57
2018-05-24T02:32:20.953Z,23.97
2018-05-24T02:37:39.259Z,21.80
2018-05-24T02:40:07.992Z,24.83
2018-05-24T02:42:35.949Z,22.80
2018-05-24T02:45:03.526Z,31.30
2018-05-24T02:47:31.080Z,23.27
2018-05-24T03:01:23.419Z,21.80
2018-05-24T03:03:50.958Z,22.97
2018-05-24T03:06:18.510Z,17.60
2018-05-24T03:08:46.093Z,18.93
2018-05-24T03:11:13.847Z,22.63
2018-05-24T03:13:41.399Z,22.37
2018-05-24T03:16:08.987Z,25.67
2018-05-24T03:18:36.568Z,19.67
2018-05-24T03:21:04.148Z,19.83
2018-05-24T03:23:31.746Z,26.20
2018-05-24T03:25:59.344Z,21.23
2018-05-24T03:28:26.923Z,24.53
2018-05-24T03:30:54.476Z,21.17
2018-05-24T03:33:22.092Z,23.17
2018-05-24T03:35:49.641Z,20.10
2018-05-24T03:43:58.948Z,23.17
2018-05-24T03:46:26.431Z,23.70
2018-05-24T03:48:53.900Z,23.90
2018-05-24T03:51:21.391Z,25.10
2018-05-24T03:53:48.879Z,23.57
2018-05-24T03:56:16.386Z,22.97
2018-05-24T03:58:43.989Z,25.77
2018-05-24T04:01:23.354Z,28.00
2018-05-24T04:03:50.827Z,31.60
2018-05-24T04:06:18.337Z,26.40
2018-05-24T04:08:45.841Z,27.73
2018-05-24T04:11:14.204Z,25.10
2018-05-24T04:13:41.672Z,27.13
2018-05-24T04:16:09.200Z,26.83
2018-05-24T04:18:36.663Z,28.00
2018-05-24T04:21:04.137Z,23.47
2018-05-24T04:23:31.619Z,25.50
2018-05-24T04:25:59.116Z,29.67
2018-05-24T04:28:26.611Z,26.67
2018-05-24T04:30:54.209Z,26.67
2018-05-24T04:33:21.708Z,27.70
2018-05-24T04:35:49.181Z,27.07
2018-05-24T04:38:16.675Z,26.70
2018-05-24T04:40:44.165Z,27.53
2018-05-24T04:43:11.661Z,28.67
2018-05-24T04:45:39.155Z,29.27
2018-05-24T04:48:06.637Z,25.97
2018-05-24T04:50:34.374Z,30.10
2018-05-24T04:53:01.868Z,29.80
2018-05-24T04:55:29.361Z,29.83
2018-05-24T04:57:56.851Z,28.50
2018-05-24T05:00:24.332Z,31.27
2018-05-24T05:02:51.826Z,33.93
2018-05-24T05:05:19.309Z,26.13
2018-05-24T05:07:46.763Z,34.50
2018-05-24T05:10:14.219Z,29.70
2018-05-24T05:12:41.697Z,30.30
2018-05-24T05:15:09.179Z,29.20
2018-05-24T05:17:36.667Z,34.60
2018-05-24T05:20:04.140Z,30.10
2018-05-24T05:22:31.620Z,29.67
2018-05-24T05:24:59.166Z,34.70
2018-05-24T05:27:26.663Z,34.53
2018-05-24T05:29:54.161Z,33.30
2018-05-24T05:32:21.717Z,26.33
2018-05-24T05:34:49.274Z,30.93
2018-05-24T05:37:16.753Z,37.30
2018-05-24T05:39:44.251Z,38.13
2018-05-24T05:42:11.818Z,33.20
2018-05-24T05:44:39.285Z,33.00
2018-05-24T05:47:06.758Z,39.57
2018-05-24T05:49:34.236Z,30.63
2018-05-24T05:52:01.769Z,38.23
2018-05-24T05:54:29.320Z,44.07
2018-05-24T05:56:56.794Z,35.33
2018-05-24T05:59:24.361Z,32.93
2018-05-24T06:01:51.922Z,31.80
2018-05-24T06:04:19.314Z,39.83
2018-05-24T06:06:46.836Z,44.87
2018-05-24T06:09:14.319Z,43.60
2018-05-24T06:11:41.783Z,36.93
2018-05-24T06:14:09.245Z,30.70
2018-05-24T06:16:36.736Z,36.67
2018-05-24T06:36:13.075Z,32.00
2018-05-24T06:41:31.091Z,46.80
2018-05-24T06:43:58.571Z,36.73
2018-05-24T06:46:26.054Z,31.57
2018-05-24T06:48:55.943Z,31.00
2018-05-24T06:51:23.409Z,32.60
2018-05-24T06:53:50.971Z,32.93
2018-05-24T06:56:18.583Z,29.17
2018-05-24T06:58:46.259Z,29.27
2018-05-24T07:01:26.669Z,35.07
2018-05-24T07:06:44.421Z,29.63
2018-05-24T07:09:11.908Z,31.20
2018-05-24T07:11:39.389Z,34.33
2018-05-24T07:14:06.862Z,28.67
2018-05-24T07:30:48.066Z,30.90
2018-05-24T07:33:15.545Z,33.27
2018-05-24T07:35:43.025Z,33.80
2018-05-24T07:38:10.516Z,34.23
2018-05-24T07:40:38.755Z,29.40
2018-05-24T07:43:06.309Z,29.40
2018-05-24T07:45:33.786Z,27.63
2018-05-24T07:50:51.763Z,29.33
2018-05-24T07:53:19.247Z,27.97
2018-05-24T07:56:04.810Z,28.83
2018-05-24T07:58:32.290Z,32.40
2018-05-24T08:00:59.843Z,35.87
2018-05-24T08:03:27.324Z,35.43
2018-05-24T08:05:54.786Z,34.73
2018-05-24T08:08:22.253Z,33.53
2018-05-24T08:10:49.741Z,34.70
2018-05-24T08:13:17.224Z,29.53
2018-05-24T08:15:44.722Z,31.50
2018-05-24T08:18:12.194Z,43.10
2018-05-24T08:20:39.716Z,31.50
2018-05-24T08:23:07.182Z,31.43
2018-05-24T08:25:34.789Z,31.20
2018-05-24T08:28:02.274Z,29.20
2018-05-24T08:30:29.779Z,34.30
2018-05-24T08:32:57.278Z,33.90
2018-05-24T08:35:24.775Z,31.20
2018-05-24T08:37:52.361Z,33.97
2018-05-24T08:40:19.829Z,32.23
2018-05-24T08:42:47.286Z,29.07
2018-05-24T08:45:14.815Z,30.03
2018-05-24T08:47:42.457Z,30.13
2018-05-24T08:50:09.925Z,33.83
2018-05-24T08:52:37.395Z,32.77
2018-05-24T08:55:05.625Z,29.60
2018-05-24T08:57:33.155Z,40.53
2018-05-24T09:00:00.633Z,31.70
2018-05-24T09:02:28.128Z,33.13
2018-05-24T09:04:57.172Z,30.57
2018-05-24T09:07:24.753Z,33.43
2018-05-24T09:09:52.284Z,34.80
2018-05-24T09:12:19.766Z,27.67
2018-05-24T09:14:48.057Z,27.83
2018-05-24T09:17:15.521Z,35.93
2018-05-24T09:19:42.991Z,34.87
2018-05-24T09:22:10.679Z,27.40
2018-05-24T09:24:38.159Z,34.63
2018-05-24T09:27:05.647Z,31.63
2018-05-24T09:29:38.868Z,31.17
2018-05-24T09:32:06.360Z,36.63
2018-05-24T09:34:33.872Z,28.37
2018-05-24T09:37:01.372Z,29.87
2018-05-24T09:39:28.841Z,31.10
2018-05-24T09:41:56.356Z,27.90
2018-05-24T09:44:23.886Z,34.97
2018-05-24T09:46:51.400Z,29.37
2018-05-24T09:49:18.877Z,28.30
2018-05-24T09:51:46.337Z,30.27
2018-05-24T09:54:13.822Z,30.03
2018-05-24T09:56:41.285Z,27.07
2018-05-24T10:04:46.085Z,26.60
2018-05-24T10:07:13.574Z,32.00
2018-05-24T10:09:41.126Z,24.43
2018-05-24T10:12:08.600Z,29.20
2018-05-24T10:14:36.106Z,20.47
2018-05-24T10:25:39.782Z,24.13
2018-05-24T10:28:07.239Z,22.83
2018-05-24T10:30:34.714Z,21.47
2018-05-24T10:33:02.190Z,23.50
2018-05-24T10:35:29.710Z,18.90
2018-05-24T10:37:57.178Z,20.53
2018-05-24T10:40:24.665Z,22.40
2018-05-24T10:42:52.128Z,26.73
2018-05-24T10:45:19.670Z,23.23
2018-05-24T10:47:47.081Z,22.87
2018-05-24T10:50:14.564Z,23.13
2018-05-24T10:52:42.014Z,19.00
2018-05-24T10:55:09.499Z,22.13
2018-05-24T10:57:36.990Z,23.40
2018-05-24T11:00:04.484Z,19.40
2018-05-24T11:02:31.966Z,15.37
2018-05-24T11:04:59.496Z,15.40
2018-05-24T11:07:26.994Z,14.80
2018-05-24T11:09:54.496Z,13.60
2018-05-24T11:12:21.976Z,14.63
2018-05-24T11:14:49.460Z,11.77
2018-05-24T11:17:16.959Z,12.70
2018-05-24T11:19:44.538Z,13.70
2018-05-24T11:22:12.025Z,12.60
2018-05-24T11:24:39.595Z,14.23
2018-05-24T11:27:07.066Z,10.30
2018-05-24T11:29:34.515Z,9.07
2018-05-24T11:32:02.042Z,8.57
2018-05-24T11:43:01.247Z,26.40
2018-05-24T11:45:28.848Z,6.60
2018-05-24T11:47:56.339Z,6.00
2018-05-24T11:53:14.302Z,8.37
2018-05-24T11:55:41.789Z,10.23
2018-05-24T11:58:09.269Z,13.43
2018-05-24T12:00:36.723Z,9.87
2018-05-24T12:03:04.208Z,8.97
2018-05-24T12:05:31.703Z,6.80
2018-05-24T12:13:40.665Z,7.73
2018-05-24T12:16:08.132Z,6.77
2018-05-24T12:18:38.433Z,7.10
2018-05-24T12:21:05.920Z,9.37
2018-05-24T12:23:33.436Z,16.83
2018-05-24T12:26:00.986Z,6.80
2018-05-24T12:28:28.471Z,7.80
2018-05-24T12:30:55.965Z,9.80
2018-05-24T12:39:04.534Z,8.87
2018-05-24T12:41:32.094Z,12.07
2018-05-24T12:43:59.516Z,13.23
2018-05-24T12:46:27.028Z,13.67
2018-05-24T12:48:54.644Z,12.33
2018-05-24T12:51:22.170Z,11.60
2018-05-24T12:53:49.646Z,10.77
2018-05-24T12:56:17.154Z,10.13
2018-05-24T12:58:44.621Z,9.90
2018-05-24T13:01:12.080Z,8.43
2018-05-24T13:03:39.580Z,7.77
2018-05-24T13:06:07.040Z,7.77
2018-05-24T13:08:34.505Z,5.17
2018-05-24T13:11:01.976Z,7.00
2018-05-24T13:13:29.456Z,10.50
2018-05-24T13:15:56.917Z,3.97
2018-05-24T13:18:24.416Z,4.63
2018-05-24T13:20:51.877Z,5.43
2018-05-24T13:23:19.351Z,4.23
2018-05-24T13:25:46.835Z,6.10
2018-05-24T13:28:14.305Z,5.77
2018-05-24T13:30:41.797Z,5.70
2018-05-24T13:33:09.304Z,5.83
2018-05-24T13:35:36.761Z,9.40
2018-05-24T13:38:04.234Z,5.93
2018-05-24T13:40:31.863Z,6.03
2018-05-24T13:42:59.339Z,6.10
2018-05-24T13:45:26.822Z,4.70
2018-05-24T13:47:54.304Z,4.60
2018-05-24T13:50:21.769Z,5.17
2018-05-24T13:52:49.252Z,3.53
2018-05-24T13:55:16.747Z,3.70
2018-05-24T13:57:46.208Z,2.63
2018-05-24T14:00:13.718Z,2.60
2018-05-24T14:02:41.206Z,1.93
2018-05-24T14:05:08.703Z,2.60
2018-05-24T14:07:36.164Z,2.20
2018-05-24T14:10:03.753Z,2.60
2018-05-24T14:12:31.206Z,2.20
2018-05-24T14:14:58.771Z,2.57
2018-05-24T14:17:26.251Z,3.57
2018-05-24T14:19:53.724Z,2.60
2018-05-24T14:22:21.194Z,3.80
2018-05-24T14:24:48.715Z,6.70
2018-05-24T14:27:16.323Z,9.70
2018-05-24T14:29:43.821Z,5.77
2018-05-24T14:32:11.284Z,5.43
2018-05-24T14:34:38.824Z,3.80
2018-05-24T14:37:06.285Z,3.53
2018-05-24T14:39:33.756Z,3.50
2018-05-24T14:42:01.287Z,5.23
2018-05-24T14:44:28.875Z,7.03
2018-05-24T14:46:56.365Z,3.70
2018-05-24T14:49:23.846Z,8.20
2018-05-24T14:51:51.322Z,4.40
2018-05-24T14:54:18.887Z,4.70
2018-05-24T14:56:46.344Z,4.73
2018-05-24T14:59:13.799Z,4.77
2018-05-24T15:01:41.268Z,14.93
2018-05-24T15:04:08.812Z,5.50
2018-05-24T15:06:36.277Z,5.20
2018-05-24T15:09:06.717Z,5.00
2018-05-24T15:11:34.204Z,5.37
2018-05-24T15:14:01.675Z,5.00
2018-05-24T15:16:29.175Z,5.80
2018-05-24T15:18:56.647Z,5.13
2018-05-24T15:24:14.953Z,6.33
2018-05-24T15:26:42.440Z,7.63
2018-05-24T15:29:09.935Z,8.00
2018-05-24T15:31:37.523Z,16.87
2018-05-24T15:34:07.296Z,8.93
2018-05-24T15:36:34.840Z,9.40
2018-05-24T15:39:02.306Z,9.80
2018-05-24T15:41:29.825Z,11.57
2018-05-24T15:43:57.332Z,9.53
2018-05-24T15:46:24.804Z,6.80
2018-05-24T15:48:52.307Z,6.77
2018-05-24T15:51:19.789Z,11.87
2018-05-24T15:56:38.369Z,5.93
2018-05-24T15:59:05.864Z,6.33
2018-05-24T16:04:23.771Z,7.47
2018-05-24T16:09:41.530Z,9.77
2018-05-24T16:12:09.028Z,8.77
2018-05-24T16:14:36.588Z,9.97
2018-05-24T16:17:04.109Z,6.60
2018-05-24T16:19:31.587Z,6.80
2018-05-24T16:21:59.102Z,6.43
2018-05-24T16:24:26.572Z,5.03
2018-05-24T16:26:54.095Z,6.40
2018-05-24T16:29:21.589Z,4.87
2018-05-24T16:31:49.072Z,4.27
2018-05-24T16:34:16.548Z,5.30
2018-05-24T16:36:44.012Z,9.40
2018-05-24T16:42:02.256Z,4.70
2018-05-24T16:47:20.196Z,7.80
2018-05-24T16:49:47.657Z,4.70
2018-05-24T16:52:15.194Z,5.20
2018-05-24T16:54:42.701Z,8.10
2018-05-24T16:57:10.163Z,7.20
2018-05-24T16:59:37.712Z,15.53
2018-05-24T17:02:05.181Z,7.60
2018-05-24T17:04:32.657Z,6.23
2018-05-24T17:07:00.128Z,7.33
2018-05-24T17:09:27.616Z,5.30
2018-05-24T17:11:55.110Z,5.27
2018-05-24T17:14:22.568Z,8.20
2018-05-24T17:16:50.063Z,4.87
2018-05-24T17:19:17.543Z,5.90
2018-05-24T17:21:45.011Z,6.83
2018-05-24T17:24:12.464Z,4.20
2018-05-24T17:26:39.952Z,5.10
2018-05-24T17:29:07.575Z,4.27
2018-05-24T17:31:35.129Z,4.13
2018-05-24T17:34:02.639Z,3.50
2018-05-24T17:36:30.133Z,3.87
2018-05-24T17:38:57.706Z,4.13
2018-05-24T17:41:25.275Z,3.90
2018-05-24T17:43:52.758Z,7.67
2018-05-24T17:46:20.216Z,7.30
2018-05-24T17:48:47.671Z,10.40
2018-05-24T17:51:15.546Z,5.77
2018-05-24T17:53:43.030Z,5.93
2018-05-24T17:56:10.532Z,6.73
2018-05-24T17:58:38.004Z,6.30
2018-05-24T18:01:05.563Z,5.23
2018-05-24T18:03:33.036Z,3.27
2018-05-24T18:06:00.659Z,3.20
2018-05-24T18:08:28.203Z,3.17
2018-05-24T18:10:55.706Z,3.40
2018-05-24T18:13:23.162Z,8.90
2018-05-24T18:15:50.630Z,6.73
2018-05-24T18:18:18.092Z,3.87
2018-05-24T18:20:45.589Z,5.03
2018-05-24T18:23:13.148Z,8.10
2018-05-24T18:25:40.643Z,8.00
2018-05-24T18:28:08.109Z,7.23
2018-05-24T18:30:35.568Z,2.83
2018-05-24T18:33:03.037Z,3.50
2018-05-24T18:35:30.524Z,8.10
2018-05-24T18:37:57.986Z,7.23
2018-05-24T18:40:25.477Z,2.63
2018-05-24T18:42:53.058Z,3.00
2018-05-24T18:45:20.453Z,3.40
2018-05-24T18:47:47.935Z,3.20
2018-05-24T18:50:15.412Z,2.90
2018-05-24T18:52:42.987Z,3.80
2018-05-24T18:55:10.491Z,5.10
2018-05-24T18:57:37.958Z,3.60
2018-05-24T19:00:05.415Z,3.33
2018-05-24T19:02:32.890Z,3.20
2018-05-24T19:05:00.482Z,7.37
2018-05-24T19:07:27.964Z,6.67
2018-05-24T19:09:55.495Z,4.67
2018-05-24T19:12:22.980Z,3.90
2018-05-24T19:14:50.491Z,3.83
2018-05-24T19:17:17.977Z,3.73
2018-05-24T19:19:45.457Z,4.73
2018-05-24T19:22:12.928Z,3.33
2018-05-24T19:24:40.441Z,3.00
2018-05-24T19:27:07.909Z,3.50
2018-05-24T19:29:35.422Z,4.73
2018-05-24T19:32:02.919Z,5.60
2018-05-24T19:34:30.394Z,4.57
2018-05-24T19:36:57.873Z,8.00
2018-05-24T19:39:25.354Z,12.87
2018-05-24T19:41:52.938Z,3.30
2018-05-24T19:44:20.438Z,5.73
2018-05-24T19:46:47.909Z,4.37
2018-05-24T19:49:15.402Z,3.23
2018-05-24T19:51:42.898Z,4.57
2018-05-24T19:54:10.375Z,5.40
2018-05-24T19:56:37.842Z,9.67
2018-05-24T19:59:05.491Z,7.50
2018-05-24T20:01:32.944Z,5.00
2018-05-24T20:04:00.422Z,5.80
2018-05-24T20:06:28.285Z,6.07
2018-05-24T20:08:56.146Z,6.90
2018-05-24T20:11:24.015Z,5.77
2018-05-24T20:13:51.900Z,72.23
2018-05-24T20:16:19.749Z,14.20
2018-05-24T20:18:47.619Z,6.93
2018-05-24T20:21:15.585Z,9.63
2018-05-24T20:23:43.453Z,40.67
2018-05-24T20:26:11.332Z,14.87
2018-05-24T20:28:39.184Z,16.70
2018-05-24T20:31:07.003Z,12.97
2018-05-24T20:33:34.925Z,19.43
2018-05-24T20:36:02.783Z,9.27
2018-05-24T20:38:30.650Z,10.03
2018-05-24T20:40:58.511Z,7.93
2018-05-24T20:43:26.089Z,9.33
2018-05-24T20:45:53.578Z,6.50
2018-05-24T20:48:21.144Z,7.17
2018-05-24T20:50:48.692Z,19.30
2018-05-24T20:53:16.166Z,13.90
2018-05-24T20:55:43.635Z,7.53
2018-05-24T20:58:11.098Z,7.77
2018-05-24T21:00:38.552Z,6.00
2018-05-24T21:03:06.003Z,7.80
2018-05-24T21:05:33.469Z,6.30
2018-05-24T21:08:00.939Z,11.83
2018-05-24T21:10:28.390Z,11.20
2018-05-24T21:12:55.873Z,7.73
2018-05-24T21:15:23.343Z,11.13
2018-05-24T21:17:50.796Z,8.63
2018-05-24T21:20:18.309Z,10.27
2018-05-24T21:22:45.766Z,9.80
2018-05-24T21:25:13.252Z,9.87
2018-05-24T21:27:40.718Z,8.20
2018-05-24T21:30:08.179Z,13.37
2018-05-24T21:32:35.644Z,13.40
2018-05-24T21:35:03.121Z,10.80
2018-05-24T21:37:30.586Z,13.80
2018-05-24T21:39:58.047Z,18.37
2018-05-24T21:42:25.524Z,10.10
2018-05-24T21:44:53.010Z,7.93
2018-05-24T21:47:20.464Z,11.80
2018-05-24T21:49:48.023Z,10.60
2018-05-24T21:52:15.485Z,8.17
2018-05-24T21:54:42.949Z,10.13
2018-05-24T21:57:10.429Z,15.80
2018-05-24T21:59:37.900Z,10.67
2018-05-24T22:02:05.436Z,11.10
2018-05-24T22:04:32.871Z,13.40
2018-05-24T22:07:00.334Z,13.00
2018-05-24T22:09:27.798Z,11.23
2018-05-24T22:11:55.276Z,12.27
2018-05-24T22:14:22.747Z,15.10
2018-05-24T22:16:50.207Z,10.53
2018-05-24T22:19:17.721Z,18.00
2018-05-24T22:21:45.187Z,10.30
2018-05-24T22:24:12.660Z,16.50
2018-05-24T22:26:40.141Z,13.70
2018-05-24T22:29:07.600Z,9.70
2018-05-24T22:31:35.061Z,14.43
2018-05-24T22:34:02.539Z,9.63
2018-05-24T22:36:30.030Z,13.70
2018-05-24T22:38:57.515Z,9.50
2018-05-24T22:41:25.332Z,11.67
2018-05-24T22:43:52.882Z,9.70
2018-05-24T22:46:20.373Z,11.80
2018-05-24T22:48:47.855Z,12.57
2018-05-24T22:51:15.346Z,11.90
2018-05-24T22:53:42.829Z,14.40
2018-05-24T22:56:10.305Z,13.43
2018-05-24T22:58:37.790Z,19.67
2018-05-24T23:01:05.363Z,16.50
2018-05-24T23:03:32.863Z,10.87
2018-05-24T23:06:00.369Z,18.40
2018-05-24T23:08:27.870Z,14.20
2018-05-24T23:10:55.377Z,16.07
2018-05-24T23:13:22.877Z,20.10
2018-05-24T23:15:50.363Z,12.27
2018-05-24T23:18:17.851Z,13.77
2018-05-24T23:20:45.376Z,14.50
2018-05-24T23:23:12.861Z,12.13
2018-05-24T23:25:40.354Z,11.30
2018-05-24T23:28:07.825Z,13.23
2018-05-24T23:30:35.339Z,10.93
2018-05-24T23:33:02.812Z,9.43
2018-05-24T23:35:30.304Z,17.50
2018-05-24T23:40:31.719Z,10.43
2018-05-24T23:42:59.292Z,8.53
2018-05-24T23:45:26.751Z,11.77
2018-05-24T23:47:54.221Z,10.60
2018-05-24T23:50:21.725Z,8.63
2018-05-24T23:52:49.215Z,15.37
2018-05-24T23:55:16.679Z,10.87
2018-05-24T23:57:44.223Z,9.20
